Portada
METAR-TAF:

METAR-TAF

Aeroports :

Luganville, Illa Espíritu Santo, Vanuatu

latitud: 15-31S, longitud: 167-13E, altitud: 41 m

Observació

L'informe es va fer fa 26 minuts, a les 18:00 UTC
Vent 5 kt del Sud
Temperatura 26°C
Humitat 94%
Pressió 1010 hPa
Visibilitat 10 km o més
Núvols disperses a una alçada de 1800 ft
Cel ennuvolat a una alçada de 4000 ft

METAR: NVSS 171800Z 18005KT 9999 SCT018 BKN040 26/25 Q1010 RESHRA

Hora: 05:26 (18:26 UTC)

Pronòstic

L'informe es va fer fa 1 hora i 26 minuts, a les 17:00 UTC
Pronòstic vàlid del 17 a les 18 UTC al 18 a les 18 UTC
Vent 10 kt del Est/Sud-Est
Visibilitat: 8000 m
Núvols disperses a una alçada de 2000 ft
Cel ennuvolat a una alçada de 4000 ft
Escasses núvols a una alçada de 1000 ft
Cel ennuvolat a una alçada de 1800 ft
Cel cobert a una alçada de 3800 ft
xàfecs de pluja

TAF: NVSS 171700Z 1718/1818 11010KT 9999 SCT020 BKN040 INTER 1718/1724 8000 SHRA FEW010 BKN018 OVC038

Observacions i pronòstics meteorològics de més de 4000 aeroports (METAR i TAF).

Les estacions disponibles són els punts grocs i vermells al mapa.

Posi el ratolí al punt desitjat per veure el nom de l'estació.

Feu clic per veure les observacions i els pronòstics meteorològics.

Per canviar el mapa: feu clic els botons verds amb una creu de color negre per apropar; al botó verd amb un guió per allunyar la imatge; o en les fletxes verdes per a mapes adjacents.


METAR-TAF: